createdAt,value
2023-03-10T00:01:18.932Z,83.01
2023-03-10T00:03:46.271Z,83.41
2023-03-10T00:06:15.554Z,83.80
2023-03-10T00:08:42.730Z,83.41
2023-03-10T00:11:10.119Z,83.77
2023-03-10T00:13:36.702Z,84.50
2023-03-10T00:16:03.568Z,85.12
2023-03-10T00:18:30.092Z,85.13
2023-03-10T00:20:56.584Z,85.07
2023-03-10T00:23:23.416Z,85.60
2023-03-10T00:26:00.606Z,85.62
2023-03-10T00:28:27.932Z,84.75
2023-03-10T00:31:06.719Z,84.48
2023-03-10T00:33:34.945Z,84.71
2023-03-10T00:36:13.771Z,84.21
2023-03-10T00:38:41.723Z,83.39
2023-03-10T00:41:13.199Z,83.34
2023-03-10T00:43:40.191Z,83.00
2023-03-10T00:46:07.259Z,83.14
2023-03-10T00:48:34.201Z,83.30
2023-03-10T00:51:01.097Z,83.38
2023-03-10T00:53:28.021Z,83.37
2023-03-10T00:56:00.211Z,83.41
2023-03-10T00:58:27.659Z,82.70
2023-03-10T01:00:54.763Z,82.35
2023-03-10T01:03:22.147Z,83.38
2023-03-10T01:05:53.250Z,85.07
2023-03-10T01:08:20.175Z,84.99
2023-03-10T01:10:48.185Z,85.21
2023-03-10T01:13:17.250Z,85.46
2023-03-10T01:15:48.653Z,85.26
2023-03-10T01:18:16.264Z,85.92
2023-03-10T01:20:43.027Z,86.08
2023-03-10T01:23:15.252Z,87.15
2023-03-10T01:25:42.644Z,87.20
2023-03-10T01:28:09.648Z,87.46
2023-03-10T01:30:37.371Z,87.32
2023-03-10T01:33:04.747Z,87.40
2023-03-10T01:35:31.358Z,87.37
2023-03-10T01:37:58.534Z,87.67
2023-03-10T01:40:26.687Z,87.56
2023-03-10T01:43:13.571Z,87.12
2023-03-10T01:45:39.987Z,86.55
2023-03-10T01:48:06.464Z,86.62
2023-03-10T01:50:32.941Z,86.53
2023-03-10T01:52:59.442Z,86.93
2023-03-10T01:55:31.116Z,86.10
2023-03-10T01:57:58.129Z,86.23
2023-03-10T02:00:27.895Z,86.10
2023-03-10T02:03:24.590Z,85.95
2023-03-10T02:05:58.399Z,86.11
2023-03-10T02:08:29.773Z,86.43
2023-03-10T02:10:57.576Z,85.87
2023-03-10T02:13:24.028Z,86.07
2023-03-10T02:15:50.647Z,85.91
2023-03-10T02:18:19.601Z,85.13
2023-03-10T02:21:00.672Z,84.97
2023-03-10T02:24:00.892Z,85.05
2023-03-10T02:26:55.326Z,84.62
2023-03-10T02:29:30.020Z,84.29
2023-03-10T02:31:58.432Z,85.51
2023-03-10T02:34:26.659Z,85.32
2023-03-10T02:36:53.389Z,85.55
2023-03-10T02:39:19.967Z,85.42
2023-03-10T02:41:46.651Z,85.77
2023-03-10T02:44:19.132Z,86.52
2023-03-10T02:46:45.762Z,88.47
2023-03-10T02:49:12.718Z,88.42
2023-03-10T02:51:46.109Z,88.65
2023-03-10T02:54:15.529Z,88.43
2023-03-10T02:56:42.891Z,88.28
2023-03-10T02:59:11.836Z,87.06
2023-03-10T03:01:43.366Z,86.28
2023-03-10T03:04:09.874Z,85.08
2023-03-10T03:06:36.835Z,84.00
2023-03-10T03:09:04.342Z,83.56
2023-03-10T03:11:31.503Z,83.82
2023-03-10T03:13:58.806Z,83.09
2023-03-10T03:16:26.132Z,82.31
2023-03-10T03:18:57.226Z,82.38
2023-03-10T03:21:24.499Z,82.74
2023-03-10T03:23:52.547Z,81.74
2023-03-10T03:26:23.242Z,81.55
2023-03-10T03:28:53.271Z,81.30
2023-03-10T03:31:25.472Z,80.23
2023-03-10T03:34:00.703Z,79.06
2023-03-10T03:36:27.430Z,78.89
2023-03-10T03:38:54.191Z,78.94
2023-03-10T03:41:20.874Z,78.02
2023-03-10T03:43:47.760Z,77.33
2023-03-10T03:46:14.409Z,76.42
2023-03-10T03:48:41.167Z,76.26
2023-03-10T03:51:09.705Z,75.54
2023-03-10T03:53:40.314Z,75.17
2023-03-10T03:56:08.267Z,75.70
2023-03-10T03:58:37.153Z,76.20
2023-03-10T04:01:03.909Z,77.50
2023-03-10T04:03:35.977Z,78.37
2023-03-10T04:06:02.879Z,80.06
2023-03-10T04:08:29.884Z,79.31
2023-03-10T04:10:56.429Z,80.54
2023-03-10T04:13:25.937Z,81.33
2023-03-10T04:15:57.129Z,82.02
2023-03-10T04:18:25.088Z,81.14
2023-03-10T04:20:51.565Z,81.47
2023-03-10T04:23:19.606Z,81.41
2023-03-10T04:25:46.513Z,81.40
2023-03-10T04:28:14.680Z,81.55
2023-03-10T04:30:43.153Z,81.22
2023-03-10T04:33:11.991Z,80.76
2023-03-10T04:35:44.098Z,80.31
2023-03-10T04:38:13.402Z,80.88
2023-03-10T04:40:39.957Z,80.12
2023-03-10T04:43:06.492Z,80.54
2023-03-10T04:45:33.130Z,80.15
2023-03-10T04:47:59.579Z,79.81
2023-03-10T04:50:26.328Z,80.33
2023-03-10T04:52:53.628Z,80.27
2023-03-10T04:55:24.360Z,80.76
2023-03-10T04:57:52.121Z,80.02
2023-03-10T05:00:20.011Z,81.29
2023-03-10T05:02:46.718Z,81.44
2023-03-10T05:05:13.472Z,81.51
2023-03-10T05:07:43.743Z,81.61
2023-03-10T05:10:11.258Z,81.56
2023-03-10T05:12:38.886Z,81.55
2023-03-10T05:15:06.191Z,80.86
2023-03-10T05:17:33.089Z,80.29
2023-03-10T05:20:00.688Z,80.60
2023-03-10T05:22:27.611Z,80.36
2023-03-10T05:24:54.435Z,80.13
2023-03-10T05:27:22.116Z,79.73
2023-03-10T05:29:50.679Z,79.71
2023-03-10T05:32:21.278Z,79.52
2023-03-10T05:34:48.762Z,79.47
2023-03-10T05:37:15.571Z,78.76
2023-03-10T05:39:43.820Z,78.84
2023-03-10T05:42:15.380Z,79.07
2023-03-10T05:44:42.617Z,78.70
2023-03-10T05:47:09.910Z,78.66
2023-03-10T05:49:38.596Z,78.21
2023-03-10T05:52:06.376Z,78.10
2023-03-10T05:54:32.943Z,78.04
2023-03-10T05:56:59.376Z,77.85
2023-03-10T05:59:31.274Z,77.73
2023-03-10T06:01:58.200Z,77.87
2023-03-10T06:04:25.366Z,77.61
2023-03-10T06:06:52.009Z,78.33
2023-03-10T06:09:18.392Z,77.93
2023-03-10T06:11:44.825Z,78.12
2023-03-10T06:14:11.355Z,77.49
2023-03-10T06:16:37.779Z,77.45
2023-03-10T06:19:04.201Z,77.81
2023-03-10T06:21:30.705Z,77.42
2023-03-10T06:23:57.656Z,77.20
2023-03-10T06:26:24.326Z,76.87
2023-03-10T06:28:50.918Z,77.23
2023-03-10T06:31:20.600Z,77.35
2023-03-10T06:33:47.571Z,76.37
2023-03-10T06:36:15.368Z,76.37
2023-03-10T06:38:41.898Z,75.62
2023-03-10T06:41:08.984Z,75.58
2023-03-10T06:43:36.159Z,75.01
2023-03-10T06:46:04.383Z,74.27
2023-03-10T06:48:31.351Z,74.07
2023-03-10T06:50:58.035Z,73.37
2023-03-10T06:53:24.684Z,73.77
2023-03-10T06:56:06.970Z,72.64
2023-03-10T06:58:35.448Z,73.15
2023-03-10T07:01:02.570Z,73.19
2023-03-10T07:03:29.351Z,73.45
2023-03-10T07:05:59.658Z,73.13
2023-03-10T07:08:27.707Z,74.68
2023-03-10T07:10:55.523Z,74.69
2023-03-10T07:13:22.148Z,74.38
2023-03-10T07:15:49.838Z,74.29
2023-03-10T07:18:16.714Z,74.02
2023-03-10T07:20:52.965Z,74.54
2023-03-10T07:23:19.970Z,75.57
2023-03-10T07:25:46.502Z,76.97
2023-03-10T07:28:13.036Z,75.00
2023-03-10T07:30:39.914Z,77.29
2023-03-10T07:33:06.330Z,79.17
2023-03-10T07:35:35.363Z,78.15
2023-03-10T07:38:03.833Z,75.35
2023-03-10T07:40:30.503Z,75.41
2023-03-10T07:42:57.031Z,75.57
2023-03-10T07:45:26.404Z,75.71
2023-03-10T07:47:54.361Z,75.88
2023-03-10T07:50:21.886Z,76.81
2023-03-10T07:52:48.647Z,77.15
2023-03-10T07:55:15.064Z,76.96
2023-03-10T07:57:41.680Z,77.74
2023-03-10T08:00:08.844Z,77.40
2023-03-10T08:02:41.664Z,78.33
2023-03-10T08:05:09.682Z,77.74
2023-03-10T08:07:37.964Z,78.00
2023-03-10T08:10:05.370Z,78.04
2023-03-10T08:12:31.877Z,78.72
2023-03-10T08:14:58.329Z,78.81
2023-03-10T08:17:30.573Z,78.75
2023-03-10T08:19:58.477Z,79.18
2023-03-10T08:22:25.576Z,78.80
2023-03-10T08:24:52.046Z,79.44
2023-03-10T08:27:18.990Z,77.65
2023-03-10T08:29:45.401Z,77.00
2023-03-10T08:32:12.353Z,75.05
2023-03-10T08:34:38.905Z,74.03
2023-03-10T08:37:05.652Z,72.94
2023-03-10T08:39:32.112Z,72.31
2023-03-10T08:41:58.731Z,72.86
2023-03-10T08:44:25.283Z,72.56
2023-03-10T08:46:52.457Z,73.21
2023-03-10T08:49:21.232Z,74.33
2023-03-10T08:51:48.556Z,75.43
2023-03-10T08:54:18.200Z,76.49
2023-03-10T08:56:44.760Z,78.14
2023-03-10T08:59:11.276Z,78.57
2023-03-10T09:01:38.340Z,79.58
2023-03-10T09:04:07.164Z,80.49
2023-03-10T09:06:34.531Z,81.14
2023-03-10T09:09:01.242Z,81.90
2023-03-10T09:11:31.549Z,82.51
2023-03-10T09:13:58.984Z,82.20
2023-03-10T09:16:26.252Z,82.81
2023-03-10T09:18:52.894Z,82.99
2023-03-10T09:21:20.305Z,82.21
2023-03-10T09:23:48.559Z,82.74
2023-03-10T09:26:15.881Z,83.11
2023-03-10T09:28:42.595Z,83.49
2023-03-10T09:31:10.496Z,83.31
2023-03-10T09:33:38.409Z,83.18
2023-03-10T09:36:06.752Z,83.59
2023-03-10T09:38:33.788Z,84.10
2023-03-10T09:41:28.796Z,84.86
2023-03-10T09:44:34.195Z,84.78
2023-03-10T09:47:23.990Z,83.90
2023-03-10T09:50:10.213Z,83.46
2023-03-10T09:52:45.902Z,84.70
2023-03-10T09:55:25.509Z,85.14
2023-03-10T09:57:54.649Z,84.44
2023-03-10T10:00:27.074Z,85.77
2023-03-10T10:03:22.429Z,86.16
2023-03-10T10:05:52.861Z,85.60
2023-03-10T10:08:26.060Z,85.68
2023-03-10T10:10:59.090Z,84.63
2023-03-10T10:13:29.803Z,84.87
2023-03-10T10:16:24.670Z,84.91
2023-03-10T10:19:17.570Z,84.70
2023-03-10T10:22:07.024Z,83.12
2023-03-10T10:24:33.675Z,82.97
2023-03-10T10:27:00.097Z,82.84
2023-03-10T10:29:34.739Z,83.46
2023-03-10T10:32:02.820Z,82.98
2023-03-10T10:34:29.845Z,82.41
2023-03-10T10:36:56.654Z,83.10
2023-03-10T10:39:28.353Z,82.57
2023-03-10T10:41:55.090Z,82.52
2023-03-10T10:44:21.543Z,81.73
2023-03-10T10:46:53.083Z,81.93
2023-03-10T10:49:23.814Z,82.76
2023-03-10T10:52:00.004Z,83.20
2023-03-10T10:54:39.033Z,83.91
2023-03-10T10:57:17.793Z,83.35
2023-03-10T10:59:44.283Z,83.15
2023-03-10T11:02:22.615Z,83.11
2023-03-10T11:04:49.301Z,83.47
2023-03-10T11:07:27.042Z,82.13
2023-03-10T11:09:56.719Z,82.03
2023-03-10T11:12:32.102Z,80.50
2023-03-10T11:15:15.959Z,80.39
2023-03-10T11:17:42.983Z,79.94
2023-03-10T11:20:29.768Z,81.30
2023-03-10T11:23:06.404Z,81.11
2023-03-10T11:25:51.211Z,82.48
2023-03-10T11:28:40.666Z,82.04
2023-03-10T11:31:49.884Z,81.56
2023-03-10T11:34:22.237Z,82.19
2023-03-10T11:37:14.341Z,82.42
2023-03-10T11:39:41.562Z,82.60
2023-03-10T11:42:16.924Z,82.94
2023-03-10T11:45:00.362Z,83.89
2023-03-10T11:47:56.816Z,82.41
2023-03-10T11:50:47.870Z,83.31
2023-03-10T11:53:42.322Z,82.92
2023-03-10T11:56:12.520Z,81.60
2023-03-10T11:58:57.460Z,82.46
2023-03-10T12:01:34.270Z,82.55
2023-03-10T12:04:14.650Z,82.70
2023-03-10T12:07:03.739Z,83.49
2023-03-10T12:09:50.574Z,83.16
2023-03-10T12:12:27.221Z,83.88
2023-03-10T12:14:54.818Z,83.41
2023-03-10T12:17:21.404Z,83.61
2023-03-10T12:20:12.978Z,83.83
2023-03-10T12:22:46.337Z,83.75
2023-03-10T12:25:27.722Z,83.19
2023-03-10T12:28:24.816Z,82.12
2023-03-10T12:31:23.627Z,82.64
2023-03-10T12:33:52.334Z,82.70
2023-03-10T12:36:22.020Z,83.70
2023-03-10T12:39:01.638Z,83.86
2023-03-10T12:41:28.036Z,83.58
2023-03-10T12:43:59.404Z,83.87
2023-03-10T12:47:04.105Z,84.69
2023-03-10T12:49:46.013Z,84.78
2023-03-10T12:52:37.288Z,84.56
2023-03-10T12:55:15.911Z,85.33
2023-03-10T12:58:30.672Z,85.07
2023-03-10T13:01:03.891Z,85.91
2023-03-10T13:03:35.529Z,85.20
2023-03-10T13:06:20.912Z,84.69
2023-03-10T13:08:54.735Z,84.99
2023-03-10T13:11:34.370Z,85.49
2023-03-10T13:14:10.619Z,84.98
2023-03-10T13:16:37.370Z,85.01
2023-03-10T13:19:04.208Z,84.69
2023-03-10T13:21:38.547Z,85.30
2023-03-10T13:24:36.190Z,85.26
2023-03-10T13:27:19.999Z,85.30
2023-03-10T13:29:58.332Z,85.23
2023-03-10T13:32:26.320Z,86.15
2023-03-10T13:34:53.223Z,87.05
2023-03-10T13:37:19.724Z,87.90
2023-03-10T13:39:47.219Z,87.00
2023-03-10T13:42:28.267Z,86.99
2023-03-10T13:44:57.873Z,87.27
2023-03-10T13:47:26.599Z,86.72
2023-03-10T13:49:55.412Z,85.95
2023-03-10T13:52:25.483Z,85.44
2023-03-10T13:54:52.627Z,85.87
2023-03-10T13:57:26.377Z,85.15
2023-03-10T13:59:54.510Z,84.61
2023-03-10T14:02:23.762Z,84.24
2023-03-10T14:04:52.164Z,84.78
2023-03-10T14:07:25.151Z,84.51
2023-03-10T14:10:03.550Z,85.16
2023-03-10T14:12:52.542Z,83.76
2023-03-10T14:15:18.994Z,84.70
2023-03-10T14:18:07.107Z,85.80
2023-03-10T14:20:36.635Z,85.31
2023-03-10T14:23:18.051Z,84.24
2023-03-10T14:25:46.170Z,84.22
2023-03-10T14:30:43.830Z,84.10
2023-03-10T14:33:15.806Z,84.31
2023-03-10T14:35:43.146Z,84.85
2023-03-10T14:38:09.645Z,84.61
2023-03-10T14:40:41.351Z,84.01
2023-03-10T14:43:15.763Z,85.04
2023-03-10T14:45:44.395Z,85.82
2023-03-10T14:48:19.949Z,84.50
2023-03-10T14:50:47.480Z,83.92
2023-03-10T14:53:19.653Z,81.30
2023-03-10T14:55:49.366Z,81.53
2023-03-10T14:58:20.324Z,81.12
2023-03-10T15:00:46.825Z,78.79
2023-03-10T15:03:13.602Z,78.99
2023-03-10T15:05:48.359Z,78.67
2023-03-10T15:08:16.252Z,78.91
2023-03-10T15:10:47.912Z,78.72
2023-03-10T15:13:15.283Z,78.05
2023-03-10T15:15:45.363Z,78.77
2023-03-10T15:18:13.511Z,77.95
2023-03-10T15:20:40.755Z,76.95
2023-03-10T15:23:08.740Z,78.21
2023-03-10T15:25:35.271Z,76.89
2023-03-10T15:28:01.828Z,76.43
2023-03-10T15:30:33.884Z,77.06
2023-03-10T15:33:01.121Z,75.11
2023-03-10T15:35:29.187Z,74.54
2023-03-10T15:37:56.508Z,74.40
2023-03-10T15:40:26.221Z,73.34
2023-03-10T15:42:55.600Z,73.38
2023-03-10T15:45:22.141Z,72.94
2023-03-10T15:47:48.918Z,73.75
2023-03-10T15:50:18.999Z,73.65
2023-03-10T15:52:47.309Z,74.06
2023-03-10T15:55:14.933Z,72.29
2023-03-10T15:57:41.759Z,72.53
2023-03-10T16:00:09.163Z,72.21
2023-03-10T16:02:35.658Z,72.31
2023-03-10T16:05:02.301Z,71.68
2023-03-10T16:07:28.796Z,71.46
2023-03-10T16:09:55.487Z,70.63
2023-03-10T16:12:23.278Z,70.44
2023-03-10T16:14:50.095Z,70.21
2023-03-10T16:17:16.799Z,69.82
2023-03-10T16:19:43.256Z,69.75
2023-03-10T16:22:10.385Z,69.22
2023-03-10T16:24:36.847Z,68.98
2023-03-10T16:27:03.505Z,68.99
2023-03-10T16:29:30.127Z,68.96
2023-03-10T16:31:56.718Z,68.64
2023-03-10T16:34:23.220Z,68.46
2023-03-10T16:36:50.566Z,68.87
2023-03-10T16:39:17.980Z,68.68
2023-03-10T16:41:44.687Z,69.38
2023-03-10T16:44:12.713Z,69.28
2023-03-10T16:46:39.639Z,69.86
2023-03-10T16:49:06.071Z,70.28
2023-03-10T16:51:38.158Z,69.68
2023-03-10T16:54:07.855Z,69.75
2023-03-10T16:56:43.688Z,69.69
2023-03-10T16:59:21.668Z,69.72
2023-03-10T17:01:49.880Z,68.98
2023-03-10T17:04:16.793Z,69.18
2023-03-10T17:06:43.646Z,69.29
2023-03-10T17:09:11.559Z,68.99
2023-03-10T17:11:40.812Z,69.63
2023-03-10T17:14:11.915Z,69.49
2023-03-10T17:16:38.668Z,69.40
2023-03-10T17:19:10.296Z,69.74
2023-03-10T17:21:39.304Z,69.89
2023-03-10T17:24:09.127Z,69.02
2023-03-10T17:26:36.814Z,69.11
2023-03-10T17:29:04.002Z,69.77
2023-03-10T17:31:31.073Z,68.62
2023-03-10T17:34:03.759Z,68.47
2023-03-10T17:36:31.074Z,68.19
2023-03-10T17:39:00.163Z,68.30
2023-03-10T17:41:27.963Z,67.49
2023-03-10T17:43:55.303Z,67.30
2023-03-10T17:46:24.573Z,68.06
2023-03-10T17:48:51.988Z,67.17
2023-03-10T17:51:23.904Z,67.22
2023-03-10T17:53:52.821Z,66.79
2023-03-10T17:56:20.146Z,66.88
2023-03-10T17:58:46.592Z,66.57
2023-03-10T18:01:19.266Z,66.92
2023-03-10T18:03:48.158Z,67.56
2023-03-10T18:06:21.020Z,67.94
2023-03-10T18:08:47.522Z,67.27
2023-03-10T18:11:14.306Z,67.60
2023-03-10T18:13:41.160Z,67.37
2023-03-10T18:16:10.530Z,70.43
2023-03-10T18:18:37.000Z,72.70
2023-03-10T18:21:03.553Z,74.96
2023-03-10T18:23:29.967Z,76.15
2023-03-10T18:25:56.415Z,77.57
2023-03-10T18:28:23.428Z,76.74
2023-03-10T18:30:51.793Z,77.43
2023-03-10T18:33:18.672Z,77.64
2023-03-10T18:35:46.674Z,75.78
2023-03-10T18:38:15.563Z,76.07
2023-03-10T18:40:43.313Z,73.05
2023-03-10T18:43:10.159Z,71.97
2023-03-10T18:45:39.352Z,71.41
2023-03-10T18:48:07.407Z,70.71
2023-03-10T18:50:33.915Z,69.95
2023-03-10T18:53:00.393Z,68.79
2023-03-10T18:55:27.031Z,68.53
2023-03-10T18:57:53.570Z,67.41
2023-03-10T19:00:21.338Z,65.46
2023-03-10T19:02:47.894Z,65.81
2023-03-10T19:05:15.345Z,65.95
2023-03-10T19:07:42.190Z,65.84
2023-03-10T19:10:12.397Z,65.24
2023-03-10T19:12:39.345Z,64.33
2023-03-10T19:15:08.997Z,63.53
2023-03-10T19:17:37.577Z,62.97
2023-03-10T19:20:07.526Z,63.39
2023-03-10T19:22:34.847Z,64.17
2023-03-10T19:25:03.435Z,63.15
2023-03-10T19:27:30.378Z,63.25
2023-03-10T19:29:57.495Z,62.19
2023-03-10T19:32:24.748Z,62.47
2023-03-10T19:34:51.296Z,62.52
2023-03-10T19:37:17.926Z,62.62
2023-03-10T19:39:44.545Z,63.75
2023-03-10T19:42:11.048Z,63.17
2023-03-10T19:44:40.673Z,62.71
2023-03-10T19:47:07.291Z,62.42
2023-03-10T19:49:34.169Z,61.60
2023-03-10T19:52:01.270Z,61.47
2023-03-10T19:54:27.935Z,61.05
2023-03-10T19:56:54.400Z,61.63
2023-03-10T19:59:21.057Z,62.05
2023-03-10T20:01:49.342Z,61.62
2023-03-10T20:04:15.922Z,61.90
2023-03-10T20:06:42.414Z,62.28
2023-03-10T20:09:10.718Z,62.29
2023-03-10T20:11:38.700Z,62.48
2023-03-10T20:14:05.633Z,63.11
2023-03-10T20:16:32.861Z,62.76
2023-03-10T20:18:59.414Z,62.03
2023-03-10T20:21:27.037Z,62.06
2023-03-10T20:23:55.977Z,60.80
2023-03-10T20:26:23.852Z,61.16
2023-03-10T20:28:50.885Z,60.60
2023-03-10T20:31:19.725Z,61.18
2023-03-10T20:33:46.454Z,60.82
2023-03-10T20:36:16.101Z,61.26
2023-03-10T20:38:44.205Z,59.84
2023-03-10T20:41:15.484Z,59.56
2023-03-10T20:43:43.137Z,60.14
2023-03-10T20:46:10.761Z,59.67
2023-03-10T20:48:37.390Z,59.88
2023-03-10T20:51:03.926Z,60.08
2023-03-10T20:53:37.183Z,59.47
2023-03-10T20:56:08.542Z,59.32
2023-03-10T20:58:35.074Z,60.19
2023-03-10T21:01:01.651Z,59.84
2023-03-10T21:03:28.217Z,60.36
2023-03-10T21:05:54.648Z,59.32
2023-03-10T21:08:21.129Z,58.74
2023-03-10T21:10:49.319Z,58.63
2023-03-10T21:13:15.921Z,58.80
2023-03-10T21:15:42.408Z,58.59
2023-03-10T21:18:08.894Z,57.16
2023-03-10T21:20:35.433Z,58.64
2023-03-10T21:23:01.962Z,58.69
2023-03-10T21:25:28.425Z,58.82
2023-03-10T21:27:58.664Z,59.86
2023-03-10T21:30:31.762Z,60.29
2023-03-10T21:32:58.603Z,61.67
2023-03-10T21:35:27.537Z,61.14
2023-03-10T21:37:55.478Z,62.33
2023-03-10T21:40:24.196Z,61.96
2023-03-10T21:42:51.125Z,61.99
2023-03-10T21:45:23.930Z,62.28
2023-03-10T21:47:50.472Z,61.91
2023-03-10T21:50:17.630Z,61.83
2023-03-10T21:52:44.768Z,61.22
2023-03-10T21:55:29.419Z,61.42
2023-03-10T21:57:56.968Z,61.41
2023-03-10T22:00:24.274Z,61.40
2023-03-10T22:02:52.141Z,60.83
2023-03-10T22:05:19.397Z,60.83
2023-03-10T22:07:45.971Z,60.68
2023-03-10T22:10:13.247Z,60.96
2023-03-10T22:12:40.248Z,60.34
2023-03-10T22:15:08.932Z,60.91
2023-03-10T22:17:35.322Z,61.07
2023-03-10T22:20:01.908Z,61.15
2023-03-10T22:22:28.353Z,60.88
2023-03-10T22:24:54.822Z,61.27
2023-03-10T22:27:21.268Z,61.51
2023-03-10T22:29:47.713Z,61.18
2023-03-10T22:32:14.152Z,61.42
2023-03-10T22:34:41.786Z,61.89
2023-03-10T22:37:10.219Z,63.78
2023-03-10T22:39:37.564Z,63.61
2023-03-10T22:42:04.801Z,63.83
2023-03-10T22:44:37.653Z,64.49
2023-03-10T22:47:05.050Z,68.05
2023-03-10T22:49:32.541Z,67.70
2023-03-10T22:51:59.110Z,67.55
2023-03-10T22:54:25.765Z,65.70
2023-03-10T22:56:52.247Z,64.11
2023-03-10T22:59:18.718Z,63.79
2023-03-10T23:01:45.292Z,63.31
2023-03-10T23:04:11.802Z,63.12
2023-03-10T23:06:38.211Z,62.52
2023-03-10T23:09:05.393Z,62.99
2023-03-10T23:11:31.857Z,62.44
2023-03-10T23:14:01.739Z,60.53
2023-03-10T23:16:28.323Z,60.91
2023-03-10T23:18:54.773Z,59.53
2023-03-10T23:21:21.511Z,59.63
2023-03-10T23:23:48.726Z,59.11
2023-03-10T23:26:15.646Z,58.87
2023-03-10T23:28:42.081Z,58.74
2023-03-10T23:31:08.683Z,58.81
2023-03-10T23:33:35.231Z,58.92
2023-03-10T23:36:01.669Z,57.88
2023-03-10T23:38:28.316Z,58.66
2023-03-10T23:40:55.494Z,57.81
2023-03-10T23:43:22.573Z,57.42
2023-03-10T23:45:49.392Z,57.39
2023-03-10T23:48:18.211Z,57.70
2023-03-10T23:50:46.911Z,57.48
2023-03-10T23:53:15.006Z,57.21
2023-03-10T23:55:46.542Z,56.65
2023-03-10T23:58:15.455Z,56.01
